createdAt,value
2018-08-16T00:02:44.839Z,"    0"
2018-08-16T00:07:40.342Z,"    0"
2018-08-16T00:12:37.492Z,"    0"
2018-08-16T00:17:33.402Z,"    0"
2018-08-16T00:22:29.191Z,"    0"
2018-08-16T00:27:24.856Z,"    0"
2018-08-16T00:32:22.176Z,"    0"
2018-08-16T00:37:17.753Z,"    0"
2018-08-16T00:42:13.961Z,"    0"
2018-08-16T00:47:09.886Z,"    0"
2018-08-16T00:52:05.692Z,"    0"
2018-08-16T00:57:02.564Z,"    0"
2018-08-16T01:01:58.302Z,"    0"
2018-08-16T01:06:54.266Z,"    0"
2018-08-16T01:11:50.600Z,"    0"
2018-08-16T01:16:47.354Z,"    0"
2018-08-16T01:21:42.983Z,"    0"
2018-08-16T01:26:38.972Z,"    0"
2018-08-16T01:31:35.267Z,"    0"
2018-08-16T01:36:31.436Z,"    0"
2018-08-16T01:41:27.313Z,"    0"
2018-08-16T01:46:23.305Z,"    0"
2018-08-16T01:51:18.789Z,"    0"
2018-08-16T01:56:14.765Z,"    0"
2018-08-16T02:01:10.445Z,"    0"
2018-08-16T02:06:05.871Z,"    0"
2018-08-16T02:11:02.576Z,"    0"
2018-08-16T02:15:58.058Z,"    0"
2018-08-16T02:20:53.784Z,"    0"
2018-08-16T02:25:49.440Z,"    0"
2018-08-16T02:30:45.747Z,"    0"
2018-08-16T02:35:41.984Z,"    0"
2018-08-16T02:40:39.237Z,"    0"
2018-08-16T02:45:34.970Z,"    0"
2018-08-16T02:50:30.767Z,"    0"
2018-08-16T02:55:26.580Z,"    0"
2018-08-16T03:00:22.345Z,"    0"
2018-08-16T03:05:17.954Z,"    0"
2018-08-16T03:10:14.736Z,"    0"
2018-08-16T03:15:11.399Z,"    0"
2018-08-16T03:20:07.322Z,"    0"
2018-08-16T03:25:03.118Z,"    0"
2018-08-16T03:29:58.881Z,"    0"
2018-08-16T03:34:54.445Z,"    0"
2018-08-16T03:39:50.802Z,"    0"
2018-08-16T03:44:46.392Z,"    0"
2018-08-16T03:49:43.187Z,"    8"
2018-08-16T03:54:39.415Z,"   12"
2018-08-16T03:59:35.513Z,"   28"
2018-08-16T04:04:31.758Z,"   48"
2018-08-16T04:09:27.673Z,"   84"
2018-08-16T04:14:23.598Z,"  128"
2018-08-16T04:19:19.709Z,"  192"
2018-08-16T04:24:15.420Z,"  272"
2018-08-16T04:29:11.260Z,"  376"
2018-08-16T04:34:07.637Z,"  496"
2018-08-16T04:39:04.107Z,"  676"
2018-08-16T04:43:59.724Z,"  896"
2018-08-16T04:48:55.494Z," 1128"
2018-08-16T04:53:51.302Z," 1324"
2018-08-16T04:58:47.237Z," 1576"
2018-08-16T05:03:44.118Z," 1812"
2018-08-16T05:08:39.907Z," 2068"
2018-08-16T05:13:35.910Z," 2368"
2018-08-16T05:18:31.847Z," 2788"
2018-08-16T05:23:27.999Z," 3136"
2018-08-16T05:28:24.039Z," 3120"
2018-08-16T05:33:20.016Z," 3100"
2018-08-16T05:38:16.578Z," 3272"
2018-08-16T05:43:12.233Z," 3408"
2018-08-16T05:48:08.572Z," 3540"
2018-08-16T05:53:04.563Z," 3652"
2018-08-16T05:58:00.362Z," 3948"
2018-08-16T06:02:56.467Z," 4352"
2018-08-16T06:07:52.879Z," 4756"
2018-08-16T06:12:49.267Z," 4920"
2018-08-16T06:17:45.299Z," 5304"
2018-08-16T06:22:42.383Z," 5204"
2018-08-16T06:27:39.135Z," 6244"
2018-08-16T06:32:35.029Z," 7884"
2018-08-16T06:37:31.529Z," 9588"
2018-08-16T06:42:29.033Z," 9428"
2018-08-16T06:47:25.060Z," 9416"
2018-08-16T06:52:21.096Z,10224
2018-08-16T06:57:18.263Z,10680
2018-08-16T07:02:14.491Z," 8952"
2018-08-16T07:07:10.483Z," 8804"
2018-08-16T07:12:06.480Z," 7284"
2018-08-16T07:17:02.500Z," 7156"
2018-08-16T07:21:59.403Z," 8348"
2018-08-16T07:26:54.918Z," 9660"
2018-08-16T07:31:51.904Z," 8972"
2018-08-16T07:36:47.538Z,10468
2018-08-16T07:41:43.885Z,22688
2018-08-16T07:46:41.625Z,37056
2018-08-16T07:51:39.819Z,20800
2018-08-16T07:56:36.369Z,29952
2018-08-16T08:01:32.522Z,43136
2018-08-16T08:06:29.539Z,24480
2018-08-16T08:11:27.077Z,41824
2018-08-16T08:16:24.012Z,42720
2018-08-16T08:21:20.624Z,26528
2018-08-16T08:26:16.723Z,51552
2018-08-16T08:31:13.447Z,43648
2018-08-16T08:36:11.381Z,56608
2018-08-16T08:41:07.271Z,28192
2018-08-16T08:46:03.055Z,29056
2018-08-16T08:50:58.323Z,15308
2018-08-16T08:55:53.234Z,15472
2018-08-16T09:00:49.781Z,17376
2018-08-16T09:05:44.953Z,12808
2018-08-16T09:10:41.422Z,13796
2018-08-16T09:15:36.716Z,14692
2018-08-16T09:20:33.539Z,13472
2018-08-16T09:25:28.822Z,13180
2018-08-16T09:30:24.772Z,15220
2018-08-16T09:35:21.944Z,14360
2018-08-16T09:40:18.149Z,48992
2018-08-16T09:45:16.046Z,55712
2018-08-16T09:50:13.391Z,61216
2018-08-16T09:55:11.010Z,63712
2018-08-16T10:00:07.169Z,38304
2018-08-16T10:05:04.470Z,69696
2018-08-16T10:10:00.612Z,63840
2018-08-16T10:14:58.201Z,75168
2018-08-16T10:19:54.496Z,60512
2018-08-16T10:24:51.782Z,66368
2018-08-16T10:29:47.958Z,77408
2018-08-16T10:34:44.673Z,67456
2018-08-16T10:39:42.342Z,78336
2018-08-16T10:44:39.462Z,68512
2018-08-16T10:49:35.157Z,60000
2018-08-16T10:54:31.666Z,67008
2018-08-16T10:59:27.994Z,70688
2018-08-16T11:04:25.644Z,67712
2018-08-16T11:09:22.294Z,56800
2018-08-16T11:14:18.461Z,66656
2018-08-16T11:19:14.955Z,82368
2018-08-16T11:24:11.337Z,80128
2018-08-16T11:29:07.638Z,73088
2018-08-16T11:34:03.894Z,84096
2018-08-16T11:39:00.213Z,87936
2018-08-16T11:43:56.642Z,76512
2018-08-16T11:48:52.766Z,69088
2018-08-16T11:53:49.975Z,62208
2018-08-16T11:58:46.355Z,61952
2018-08-16T12:03:42.848Z,71200
2018-08-16T12:08:39.183Z,63072
2018-08-16T12:13:35.566Z,57536
2018-08-16T12:18:31.656Z,64352
2018-08-16T12:23:25.869Z,39552
2018-08-16T12:28:21.614Z,43744
2018-08-16T12:33:17.233Z,27840
2018-08-16T12:38:12.796Z," 9816"
2018-08-16T12:43:07.183Z,10064
2018-08-16T12:48:03.671Z,14668
2018-08-16T12:52:59.464Z,13884
2018-08-16T12:57:55.127Z,20544
2018-08-16T13:02:52.371Z,20096
2018-08-16T13:07:48.210Z,32512
2018-08-16T13:12:44.787Z,45856
2018-08-16T13:17:41.383Z,11748
2018-08-16T13:22:37.580Z," 8500"
2018-08-16T13:27:33.596Z," 7632"
2018-08-16T13:32:29.629Z," 8380"
2018-08-16T13:37:25.827Z," 8176"
2018-08-16T13:42:22.932Z," 7412"
2018-08-16T13:47:18.515Z," 6600"
2018-08-16T13:52:15.068Z," 6376"
2018-08-16T13:57:10.264Z," 6440"
2018-08-16T14:02:05.941Z," 6696"
2018-08-16T14:07:01.613Z," 6028"
2018-08-16T14:11:57.595Z," 5848"
2018-08-16T14:16:53.372Z," 5900"
2018-08-16T14:21:49.116Z," 5816"
2018-08-16T14:26:44.933Z," 5856"
2018-08-16T14:31:41.152Z," 5828"
2018-08-16T14:36:38.623Z," 5552"
2018-08-16T14:41:34.379Z," 5052"
2018-08-16T14:46:30.289Z," 4476"
2018-08-16T14:51:26.171Z," 4260"
2018-08-16T14:56:22.010Z," 4052"
2018-08-16T15:01:18.879Z," 4544"
2018-08-16T15:06:14.513Z," 4860"
2018-08-16T15:11:11.522Z," 5112"
2018-08-16T15:16:07.629Z," 5048"
2018-08-16T15:21:03.726Z," 4784"
2018-08-16T15:25:59.655Z," 4732"
2018-08-16T15:30:55.997Z," 4476"
2018-08-16T15:35:51.915Z," 4684"
2018-08-16T15:40:48.920Z," 4400"
2018-08-16T15:45:44.956Z," 4140"
2018-08-16T15:50:40.975Z," 4124"
2018-08-16T15:55:36.759Z," 3876"
2018-08-16T16:00:33.726Z," 3772"
2018-08-16T16:05:29.344Z," 3496"
2018-08-16T16:10:25.236Z," 3356"
2018-08-16T16:15:21.304Z," 3392"
2018-08-16T16:20:17.244Z," 3492"
2018-08-16T16:25:13.039Z," 3292"
2018-08-16T16:30:09.063Z," 3224"
2018-08-16T16:35:04.959Z," 2856"
2018-08-16T16:40:00.703Z," 2664"
2018-08-16T16:44:56.553Z," 2452"
2018-08-16T16:49:52.757Z," 2244"
2018-08-16T16:54:48.976Z," 2012"
2018-08-16T16:59:45.172Z," 1976"
2018-08-16T17:04:42.295Z," 1908"
2018-08-16T17:09:37.961Z," 1840"
2018-08-16T17:14:34.798Z," 1688"
2018-08-16T17:19:31.642Z," 1528"
2018-08-16T17:24:27.192Z," 1340"
2018-08-16T17:29:22.988Z," 1176"
2018-08-16T17:34:18.731Z," 1132"
2018-08-16T17:39:14.693Z," 1192"
2018-08-16T17:44:11.398Z," 1172"
2018-08-16T17:49:06.966Z," 1140"
2018-08-16T17:54:02.833Z," 1020"
2018-08-16T17:58:58.574Z,"  876"
2018-08-16T18:03:54.384Z,"  804"
2018-08-16T18:08:50.223Z,"  744"
2018-08-16T18:13:46.001Z,"  676"
2018-08-16T18:18:43.260Z,"  596"
2018-08-16T18:23:39.892Z,"  472"
2018-08-16T18:28:35.536Z,"  376"
2018-08-16T18:33:31.222Z,"  288"
2018-08-16T18:38:27.011Z,"  220"
2018-08-16T18:43:23.841Z,"  160"
2018-08-16T18:48:19.325Z,"  108"
2018-08-16T18:53:15.191Z,"   72"
2018-08-16T18:58:12.184Z,"   44"
2018-08-16T19:03:08.204Z,"   28"
2018-08-16T19:08:05.023Z,"   16"
2018-08-16T19:13:00.722Z,"    4"
2018-08-16T19:17:57.845Z,"    4"
2018-08-16T19:22:53.266Z,"    0"
2018-08-16T19:27:48.857Z,"    0"
2018-08-16T19:32:44.968Z,"    0"
2018-08-16T19:37:40.840Z,"    0"
2018-08-16T19:42:36.706Z,"    0"
2018-08-16T19:47:32.522Z,"    0"
2018-08-16T19:52:28.271Z,"    0"
2018-08-16T19:57:24.430Z,"    0"
2018-08-16T20:02:20.118Z,"    0"
2018-08-16T20:07:15.993Z,"    0"
2018-08-16T20:12:12.793Z,"    0"
2018-08-16T20:17:08.315Z,"    0"
2018-08-16T20:22:04.429Z,"    0"
2018-08-16T20:27:00.327Z,"    0"
2018-08-16T20:31:57.296Z,"    0"
2018-08-16T20:36:53.815Z,"    0"
2018-08-16T20:41:49.528Z,"    0"
2018-08-16T20:46:46.703Z,"    0"
2018-08-16T20:51:43.382Z,"    0"
2018-08-16T20:56:38.972Z,"    0"
2018-08-16T21:01:34.700Z,"    0"
2018-08-16T21:06:30.723Z,"    0"
2018-08-16T21:11:27.990Z,"    0"
2018-08-16T21:16:23.617Z,"    0"
2018-08-16T21:21:19.695Z,"    0"
2018-08-16T21:26:16.537Z,"    0"
2018-08-16T21:31:12.075Z,"    0"
2018-08-16T21:36:07.973Z,"    0"
2018-08-16T21:41:04.627Z,"    0"
2018-08-16T21:46:00.107Z,"    0"
2018-08-16T21:50:56.097Z,"    0"
2018-08-16T21:55:51.776Z,"    0"
2018-08-16T22:00:47.508Z,"    0"
2018-08-16T22:05:43.486Z,"    0"
2018-08-16T22:10:41.348Z,"    0"
2018-08-16T22:15:37.505Z,"    0"
2018-08-16T22:20:34.255Z,"    0"
2018-08-16T22:25:29.801Z,"    0"
2018-08-16T22:30:25.961Z,"    0"
2018-08-16T22:35:21.887Z,"    0"
2018-08-16T22:40:17.689Z,"    0"
2018-08-16T22:45:13.357Z,"    0"
2018-08-16T22:50:09.063Z,"    0"
2018-08-16T22:55:04.808Z,"    0"
2018-08-16T23:00:00.690Z,"    0"
2018-08-16T23:04:56.259Z,"    0"
2018-08-16T23:09:51.919Z,"    0"
2018-08-16T23:14:47.973Z,"    0"
2018-08-16T23:19:43.855Z,"    0"
2018-08-16T23:24:39.770Z,"    0"
2018-08-16T23:29:35.748Z,"    0"
2018-08-16T23:34:32.323Z,"    0"
2018-08-16T23:39:28.136Z,"    0"
2018-08-16T23:44:23.889Z,"    0"
2018-08-16T23:49:20.602Z,"    0"
2018-08-16T23:54:17.254Z,"    0"
2018-08-16T23:59:13.916Z,"    0"
